Mendes, Georgia
Current Conditions -  °F | °C
As of 6:55 AM on Monday 22 Dec 2014 (Local Time) from KCWV Reporting Station
Haze Haze  
Wind Chill: 44°   Ceiling: 400
Heat Index: 46°   Visibility: 2mi
Dew Point: 46°   Wind: 6mph
Humidity: 100%   Direction: 30°NNE
Pressure: 30.05"   Gusts: NA
Location:  31.9485°N, 81.9795°W
Report Text: KCWV 221155Z AUTO 03005KT 2SM BR OVC004 08/08 A3005 RMK AO2 LTG DSNT W
Loading
Personal Weather Stations






























Interactive Weather Map New forecast layout! Learn more

10-Day Weather Forecast

Advertisements
Track Severe Weather on mobile